Grand Princess — ZCBU5 — position and weather

sailwx.info

Track history (hours):
 
Tides and Currents Weather Stations Pressure Air Temp Water Temp Dewpoint Dewpoint Depression Visibility Wind Speed Wind Dir Waves Ship Positions

Grand Princess

Operator: Princess Cruises

Last reported at 2018-Nov-14 01:00 UTC. Time now 2018-Nov-14 02:39 UTC.
Position N 19°30' W 105°12'.

Length 289.5 m; beam 36 m; draft 8.5 m.

Type: Ship. MMSI: 310327000.

Wind from 310 at 15 knots

Barometer 1014.0 mb
Air temperature 27.0 ° C
Visibility: greater than 10.8 NM
Dewpoint 24.1 ° C
Water temperature 29.0 ° C

Date/timePositionNaut miles runAvg speedWind from/ knotsBaromVisibWave heightAir tempDewpointWater temp
2018-Nov-14 01:00N 19°30' W 105°12'181 4.1 310 / 151014.010.8 27.024.129.0
2018-Nov-12 05:00N 21°30' W 107°36'14721.0 340 / 171013.510.8 26.023.129.0
2018-Nov-11 22:00N 22°42' W 109°54'21117.6 300 / 121012.610.8 25.020.428.0
2018-Nov-11 10:00N 24°54' W 112°54'17822.3 270 / 41013.610.8 21.015.721.0
2018-Nov-11 02:00N 27°12' W 115°00'0 0.0 220 / 81016.610.8 21.017.823.0
2018-Nov-10 23:00N 27°12' W 115°00'20318.3 230 / 81012.510.8 23.019.923.0
2018-Nov-10 11:54N 29°52' W 117°22'4 8.9
2018-Nov-10 11:29N 29°55' W 117°25'714.1
2018-Nov-10 11:00N 30°00' W 117°30'455.3 270 / 51013.710.8 19.017.021.0
2018-Nov-10 10:55N 30°03' W 117°32'714.9
2018-Nov-10 10:28N 30°09' W 117°37'1217.3
2018-Nov-10 09:48N 30°18' W 117°45'617.3
2018-Nov-10 09:26N 30°23' W 117°50'916.9
2018-Nov-10 08:53N 30°30' W 117°56'2517.0
2018-Nov-10 07:26N 30°50' W 118°13'1416.9
2018-Nov-10 06:37N 31°01' W 118°23'116.5
2018-Nov-10 06:33N 31°02' W 118°24'816.4
2018-Nov-10 06:02N 31°08' W 118°30'816.6
2018-Nov-10 05:33N 31°15' W 118°36'816.9
2018-Nov-10 05:03N 31°22' W 118°42'816.7
2018-Nov-10 04:33N 31°28' W 118°48'916.7
2018-Nov-10 04:02N 31°35' W 118°54'816.7
2018-Nov-10 03:32N 31°41' W 118°60'816.7
2018-Nov-10 03:03N 31°48' W 119°06'916.6
2018-Nov-10 02:31N 31°55' W 119°12'816.6
2018-Nov-10 02:02N 32°01' W 119°18'816.9
2018-Nov-10 01:32N 32°08' W 119°24'916.7
2018-Nov-10 01:01N 32°15' W 119°30'816.7
2018-Nov-10 00:32N 32°21' W 119°36'816.9
2018-Nov-10 00:02N 32°28' W 119°42'816.6
2018-Nov-09 23:32N 32°35' W 119°48'816.5
2018-Nov-09 23:02N 32°41' W 119°53'117.6
2018-Nov-09 23:00N 32°42' W 119°54'916.4 040 / 121015.710.8 19.012.819.0
2018-Nov-09 22:27N 32°49' W 120°01'716.4
2018-Nov-09 22:02N 32°54' W 120°05'916.4
2018-Nov-09 21:31N 33°01' W 120°11'816.0
2018-Nov-09 21:02N 33°07' W 120°17'815.7
2018-Nov-09 20:32N 33°13' W 120°23'815.5
2018-Nov-09 20:02N 33°20' W 120°28'815.2
2018-Nov-09 19:32N 33°26' W 120°34'815.1
2018-Nov-09 19:00N 33°32' W 120°40'714.9
2018-Nov-09 18:32N 33°38' W 120°45'815.4
2018-Nov-09 18:02N 33°44' W 120°51'11294.0
2018-Nov-09 18:00N 33°36' W 120°42'1840.3 070 / 301017.710.8 20.013.019.0
2018-Nov-09 17:32N 33°50' W 120°56'816.1
2018-Nov-09 17:01N 33°57' W 121°01'1416.4
2018-Nov-09 16:08N 34°10' W 121°08'816.4
2018-Nov-09 15:39N 34°18' W 121°12'216.2
2018-Nov-09 15:30N 34°20' W 121°13'816.9
2018-Nov-09 15:02N 34°27' W 121°17'817.0
2018-Nov-09 14:32N 34°35' W 121°22'917.0
2018-Nov-09 14:02N 34°42' W 121°26'7150.1
2018-Nov-09 14:00N 34°36' W 121°24'1533.6 050 / 131020.810.8 15.011.317.0
2018-Nov-09 13:32N 34°50' W 121°30'817.0
2018-Nov-09 13:02N 34°58' W 121°35'816.8
2018-Nov-09 12:32N 35°06' W 121°39'816.8
2018-Nov-09 12:02N 35°13' W 121°43'816.8
2018-Nov-09 11:32N 35°21' W 121°48'816.9
2018-Nov-09 11:02N 35°28' W 121°52'6115.0
2018-Nov-09 11:00N 35°24' W 121°48'1430.6 060 / 301017.110.8 17.0 7.016.0
2018-Nov-09 10:32N 35°36' W 121°57'8716.7
2018-Nov-09 05:21N 36°56' W 122°37'617.0
2018-Nov-09 04:58N 37°02' W 122°40'716.4
2018-Nov-09 04:32N 37°09' W 122°43'815.4
2018-Nov-09 04:02N 37°17' W 122°43'511.1
2018-Nov-09 03:32N 37°22' W 122°44'510.6
2018-Nov-09 03:02N 37°28' W 122°44'10197.1
2018-Nov-09 03:00N 37°18' W 122°42'1532.8 330 / 131022.610.8 12.0 7.912.0
2018-Nov-09 02:32N 37°33' W 122°44'510.6
2018-Nov-09 02:02N 37°38' W 122°44'611.3
2018-Nov-09 01:32N 37°44' W 122°42'612.5
2018-Nov-09 01:02N 37°47' W 122°35'815.2
2018-Nov-09 00:32N 37°49' W 122°26'2 3.1
2018-Nov-09 00:02N 37°48' W 122°24'0 0.0
2018-Nov-08 23:32N 37°48' W 122°24'0 0.0
2018-Nov-08 23:01N 37°48' W 122°24'0 0.0
2018-Nov-08 22:31N 37°48' W 122°24'0 0.0
2018-Nov-08 22:01N 37°48' W 122°24'0 0.0
2018-Nov-08 21:31N 37°48' W 122°24'0 0.0
2018-Nov-08 21:00N 37°48' W 122°24'0 0.0
2018-Nov-08 20:30N 37°48' W 122°24'0 0.0
2018-Nov-08 20:00N 37°48' W 122°24'0 0.0
2018-Nov-08 19:30N 37°48' W 122°24'0 0.0
2018-Nov-08 19:00N 37°48' W 122°24'0 0.0
2018-Nov-08 18:32N 37°48' W 122°24'0 0.0
2018-Nov-08 18:02N 37°48' W 122°24'0 0.0
2018-Nov-08 17:32N 37°48' W 122°24'0 0.0
2018-Nov-08 16:59N 37°48' W 122°24'0 0.0
2018-Nov-08 16:32N 37°48' W 122°24'0 0.0
2018-Nov-08 16:01N 37°48' W 122°24'0 0.0
2018-Nov-08 15:31N 37°48' W 122°24'0 0.0
2018-Nov-08 15:01N 37°48' W 122°24'0 0.0
2018-Nov-08 14:32N 37°48' W 122°24'1 2.3
2018-Nov-08 14:02N 37°49' W 122°25'511.0
2018-Nov-08 13:32N 37°48' W 122°32'714.0
2018-Nov-08 13:02N 37°45' W 122°40'510.6
2018-Nov-08 12:32N 37°40' W 122°40'611.4
2018-Nov-08 12:02N 37°34' W 122°40'510.8
2018-Nov-08 11:32N 37°28' W 122°40'510.9
2018-Nov-08 11:02N 37°23' W 122°40'362.1
2018-Nov-08 11:00N 37°24' W 122°36'716.0 330 / 171016.310.8 12.510.613.0
2018-Nov-08 10:32N 37°17' W 122°39'815.6
2018-Nov-08 10:03N 37°10' W 122°37'815.6
2018-Nov-08 09:33N 37°02' W 122°34'815.0
2018-Nov-08 09:03N 36°55' W 122°31'714.9
2018-Nov-08 08:32N 36°48' W 122°28'816.6
2018-Nov-08 08:02N 36°40' W 122°24'918.5
2018-Nov-08 07:32N 36°31' W 122°21'918.4
2018-Nov-08 07:03N 36°23' W 122°17'477.3
2018-Nov-08 07:00N 36°24' W 122°12'1021.6 320 / 301015.110.8 13.0 9.114.0
2018-Nov-08 06:32N 36°14' W 122°13'917.8
2018-Nov-08 06:02N 36°06' W 122°09'917.7
2018-Nov-08 05:32N 35°58' W 122°06'917.7
2018-Nov-08 05:02N 35°49' W 122°02'816.2
2018-Nov-08 04:32N 35°42' W 121°58'714.6
2018-Nov-08 04:03N 35°35' W 121°54'815.1
2018-Nov-08 03:32N 35°28' W 121°50'815.2
2018-Nov-08 03:02N 35°21' W 121°46'715.2
2018-Nov-08 02:32N 35°15' W 121°42'714.9
2018-Nov-08 02:02N 35°08' W 121°39'714.5
2018-Nov-08 01:32N 35°01' W 121°35'714.8
2018-Nov-08 01:02N 34°54' W 121°31'514.6
2018-Nov-08 00:43N 34°50' W 121°29'314.5
2018-Nov-08 00:32N 34°48' W 121°28'115.0
2018-Nov-08 00:29N 34°47' W 121°27'614.8
2018-Nov-08 00:02N 34°41' W 121°23'714.8
2018-Nov-07 23:32N 34°35' W 121°18'714.8
2018-Nov-07 23:02N 34°29' W 121°13'121.0
2018-Nov-07 23:00N 34°30' W 121°12'816.8 310 / 221014.210.8 17.015.316.0
2018-Nov-07 22:33N 34°23' W 121°08'714.7
2018-Nov-07 22:02N 34°17' W 121°02'815.1
2018-Nov-07 21:32N 34°11' W 120°57'815.4
2018-Nov-07 21:02N 34°05' W 120°51'815.6
2018-Nov-07 20:33N 33°59' W 120°46'816.2
2018-Nov-07 20:02N 33°52' W 120°40'815.9
2018-Nov-07 19:32N 33°46' W 120°35'816.0
2018-Nov-07 19:02N 33°39' W 120°30'816.1
2018-Nov-07 18:32N 33°32' W 120°25'816.4
2018-Nov-07 18:02N 33°24' W 120°20'816.7
2018-Nov-07 17:32N 33°17' W 120°16'816.6
2018-Nov-07 17:02N 33°10' W 120°11'816.6
2018-Nov-07 16:33N 33°02' W 120°07'816.3
2018-Nov-07 16:02N 32°59' W 119°58'916.5
2018-Nov-07 15:31N 32°53' W 119°51'816.3
2018-Nov-07 15:02N 32°48' W 119°44'916.5
2018-Nov-07 14:31N 32°42' W 119°36'816.5
2018-Nov-07 14:02N 32°37' W 119°29'916.6
2018-Nov-07 13:28N 32°30' W 119°21'716.6
2018-Nov-07 13:01N 32°26' W 119°14'816.5
2018-Nov-07 12:33N 32°21' W 119°07'816.5
2018-Nov-07 12:03N 32°15' W 118°59'816.9
2018-Nov-07 11:32N 32°10' W 118°51'816.9
2018-Nov-07 11:02N 32°05' W 118°43'816.8
2018-Nov-07 10:32N 32°00' W 118°35'816.7
2018-Nov-07 10:02N 31°55' W 118°27'816.3
2018-Nov-07 09:32N 31°53' W 118°18'816.7
2018-Nov-07 09:02N 31°53' W 118°08'816.6
2018-Nov-07 08:32N 31°52' W 117°58'916.8
2018-Nov-07 08:01N 31°52' W 117°48'2612.8
2018-Nov-07 06:00N 31°48' W 117°18'12 1.4 220 / 41014.3 19.013.819.0
2018-Nov-06 21:26N 31°38' W 117°11'1419.0
2018-Nov-06 20:43N 31°33' W 117°25'518.8
2018-Nov-06 20:28N 31°31' W 117°30'818.9
2018-Nov-06 20:04N 31°28' W 117°39'118.5
2018-Nov-06 20:00N 31°27' W 117°40'918.9
2018-Nov-06 19:31N 31°24' W 117°50'919.3
2018-Nov-06 19:03N 31°20' W 117°59'118.6
2018-Nov-06 19:00N 31°20' W 118°00'919.1
2018-Nov-06 18:30N 31°16' W 118°11'919.0
2018-Nov-06 18:03N 31°13' W 118°20'119.5
2018-Nov-06 18:01N 31°12' W 118°21'1019.1
2018-Nov-06 17:30N 31°09' W 118°31'919.2
2018-Nov-06 17:04N 31°06' W 118°41'120.1
2018-Nov-06 17:01N 31°05' W 118°42'1019.4
2018-Nov-06 16:30N 31°03' W 118°53'919.8
2018-Nov-06 16:03N 31°00' W 119°03'119.8
2018-Nov-06 16:00N 30°60' W 119°04'1119.5
2018-Nov-06 15:27N 30°57' W 119°16'820.1
2018-Nov-06 15:03N 30°54' W 119°25'120.0
2018-Nov-06 15:00N 30°54' W 119°26'1020.2
2018-Nov-06 14:30N 30°51' W 119°37'1019.9
2018-Nov-06 14:01N 30°49' W 119°48'022.7
2018-Nov-06 14:00N 30°48' W 119°48'1120.0
2018-Nov-06 13:26N 30°45' W 120°01'819.8
2018-Nov-06 13:03N 30°43' W 120°09'119.5
2018-Nov-06 13:00N 30°43' W 120°10'1019.7
2018-Nov-06 12:30N 30°40' W 120°21'1719.6
2018-Nov-06 11:39N 30°35' W 120°40'719.4
2018-Nov-06 11:18N 30°33' W 120°48'719.3
2018-Nov-06 10:55N 30°31' W 120°56'1119.4
2018-Nov-06 10:20N 30°28' W 121°09'519.6
2018-Nov-06 10:03N 30°27' W 121°15'119.6
2018-Nov-06 10:00N 30°26' W 121°16'1419.5
2018-Nov-06 09:16N 30°23' W 121°32'519.4
2018-Nov-06 09:01N 30°22' W 121°37'219.4
2018-Nov-06 08:56N 30°21' W 121°39'919.3
2018-Nov-06 08:28N 30°18' W 121°49'819.4
2018-Nov-06 08:03N 30°16' W 121°58'119.5
2018-Nov-06 08:00N 30°15' W 121°59'1019.4
2018-Nov-06 07:30N 30°12' W 122°10'919.4
2018-Nov-06 07:03N 30°10' W 122°19'119.4
2018-Nov-06 07:00N 30°10' W 122°20'1119.1
2018-Nov-06 06:25N 30°06' W 122°33'1520.1
2018-Nov-06 05:40N 30°02' W 122°50'320.7
2018-Nov-06 05:31N 30°02' W 122°53'1420.7
2018-Nov-06 04:51N 29°58' W 123°09'1120.5
2018-Nov-06 04:19N 29°55' W 123°20'620.5
2018-Nov-06 04:03N 29°53' W 123°26'120.2
2018-Nov-06 03:59N 29°53' W 123°28'2020.4
2018-Nov-06 03:00N 29°47' W 123°50'1020.6
2018-Nov-06 02:30N 29°44' W 124°01'920.3
2018-Nov-06 02:04N 29°41' W 124°11'120.7
2018-Nov-06 02:00N 29°41' W 124°13'1020.2
2018-Nov-06 01:30N 29°38' W 124°24'920.1
2018-Nov-06 01:03N 29°36' W 124°34'3320.1
2018-Nov-05 23:24N 29°26' W 125°10'5119.9
2018-Nov-05 20:50N 29°12' W 126°07'819.5
2018-Nov-05 20:25N 29°09' W 126°15'1119.8
2018-Nov-05 19:52N 29°06' W 126°27'1319.5
2018-Nov-05 19:13N 29°03' W 126°41'519.2
2018-Nov-05 18:57N 29°01' W 126°47'3219.4
2018-Nov-05 17:18N 28°52' W 127°22'719.5
2018-Nov-05 16:58N 28°50' W 127°29'3219.6
2018-Nov-05 15:20N 28°41' W 128°04'2820.1
2018-Nov-05 13:55N 28°33' W 128°35'2719.9
2018-Nov-05 12:33N 28°26' W 129°05'120.7
2018-Nov-05 12:30N 28°25' W 129°06'1019.9
2018-Nov-05 12:00N 28°23' W 129°17'1119.5
2018-Nov-05 11:27N 28°19' W 129°29'819.7
2018-Nov-05 11:03N 28°17' W 129°37'119.7
2018-Nov-05 10:59N 28°17' W 129°39'1119.8
2018-Nov-05 10:25N 28°14' W 129°51'719.8
2018-Nov-05 10:03N 28°12' W 129°59'119.1
2018-Nov-05 10:00N 28°11' W 129°60'1319.8
2018-Nov-05 09:20N 28°08' W 130°14'719.8
2018-Nov-05 08:59N 28°06' W 130°22'1019.7
2018-Nov-05 08:29N 28°03' W 130°32'919.6
2018-Nov-05 08:03N 28°01' W 130°42'119.7
2018-Nov-05 08:00N 28°00' W 130°43'1019.8
2018-Nov-05 07:29N 27°57' W 130°54'  
Track history (hours):
 
Tides and Currents Weather Stations Pressure Air Temp Water Temp Dewpoint Dewpoint Depression Visibility Wind Speed Wind Dir Waves Ship Positions

Grand Princess

Operator: Princess Cruises

Last reported at 2018-Nov-14 01:00 UTC. Time now 2018-Nov-14 02:39 UTC.
Position N 19°30' W 105°12'.

Length 289.5 m; beam 36 m; draft 8.5 m.

Type: Ship. MMSI: 310327000.

Wind from 310 at 15 knots

Barometer 1014.0 mb
Air temperature 27.0 ° C
Visibility: greater than 10.8 NM
Dewpoint 24.1 ° C
Water temperature 29.0 ° C

Date/timePositionNaut miles runAvg speedWind from/ knotsBaromVisibWave heightAir tempDewpointWater temp
2018-Nov-14 01:00N 19°30' W 105°12'181 4.1 310 / 151014.010.8 27.024.129.0
2018-Nov-12 05:00N 21°30' W 107°36'14721.0 340 / 171013.510.8 26.023.129.0
2018-Nov-11 22:00N 22°42' W 109°54'21117.6 300 / 121012.610.8 25.020.428.0
2018-Nov-11 10:00N 24°54' W 112°54'17822.3 270 / 41013.610.8 21.015.721.0
2018-Nov-11 02:00N 27°12' W 115°00'0 0.0 220 / 81016.610.8 21.017.823.0
2018-Nov-10 23:00N 27°12' W 115°00'20318.3 230 / 81012.510.8 23.019.923.0
2018-Nov-10 11:54N 29°52' W 117°22'4 8.9
2018-Nov-10 11:29N 29°55' W 117°25'714.1
2018-Nov-10 11:00N 30°00' W 117°30'455.3 270 / 51013.710.8 19.017.021.0
2018-Nov-10 10:55N 30°03' W 117°32'714.9
2018-Nov-10 10:28N 30°09' W 117°37'1217.3
2018-Nov-10 09:48N 30°18' W 117°45'617.3
2018-Nov-10 09:26N 30°23' W 117°50'916.9
2018-Nov-10 08:53N 30°30' W 117°56'2517.0
2018-Nov-10 07:26N 30°50' W 118°13'1416.9
2018-Nov-10 06:37N 31°01' W 118°23'116.5
2018-Nov-10 06:33N 31°02' W 118°24'816.4
2018-Nov-10 06:02N 31°08' W 118°30'816.6
2018-Nov-10 05:33N 31°15' W 118°36'816.9
2018-Nov-10 05:03N 31°22' W 118°42'816.7
2018-Nov-10 04:33N 31°28' W 118°48'916.7
2018-Nov-10 04:02N 31°35' W 118°54'816.7
2018-Nov-10 03:32N 31°41' W 118°60'816.7
2018-Nov-10 03:03N 31°48' W 119°06'916.6
2018-Nov-10 02:31N 31°55' W 119°12'816.6
2018-Nov-10 02:02N 32°01' W 119°18'816.9
2018-Nov-10 01:32N 32°08' W 119°24'916.7
2018-Nov-10 01:01N 32°15' W 119°30'816.7
2018-Nov-10 00:32N 32°21' W 119°36'816.9
2018-Nov-10 00:02N 32°28' W 119°42'816.6
2018-Nov-09 23:32N 32°35' W 119°48'816.5
2018-Nov-09 23:02N 32°41' W 119°53'117.6
2018-Nov-09 23:00N 32°42' W 119°54'916.4 040 / 121015.710.8 19.012.819.0
2018-Nov-09 22:27N 32°49' W 120°01'716.4
2018-Nov-09 22:02N 32°54' W 120°05'916.4
2018-Nov-09 21:31N 33°01' W 120°11'816.0
2018-Nov-09 21:02N 33°07' W 120°17'815.7
2018-Nov-09 20:32N 33°13' W 120°23'815.5
2018-Nov-09 20:02N 33°20' W 120°28'815.2
2018-Nov-09 19:32N 33°26' W 120°34'815.1
2018-Nov-09 19:00N 33°32' W 120°40'714.9
2018-Nov-09 18:32N 33°38' W 120°45'815.4
2018-Nov-09 18:02N 33°44' W 120°51'11294.0
2018-Nov-09 18:00N 33°36' W 120°42'1840.3 070 / 301017.710.8 20.013.019.0
2018-Nov-09 17:32N 33°50' W 120°56'816.1
2018-Nov-09 17:01N 33°57' W 121°01'1416.4
2018-Nov-09 16:08N 34°10' W 121°08'816.4
2018-Nov-09 15:39N 34°18' W 121°12'216.2
2018-Nov-09 15:30N 34°20' W 121°13'816.9
2018-Nov-09 15:02N 34°27' W 121°17'817.0
2018-Nov-09 14:32N 34°35' W 121°22'917.0
2018-Nov-09 14:02N 34°42' W 121°26'7150.1
2018-Nov-09 14:00N 34°36' W 121°24'1533.6 050 / 131020.810.8 15.011.317.0
2018-Nov-09 13:32N 34°50' W 121°30'817.0
2018-Nov-09 13:02N 34°58' W 121°35'816.8
2018-Nov-09 12:32N 35°06' W 121°39'816.8
2018-Nov-09 12:02N 35°13' W 121°43'816.8
2018-Nov-09 11:32N 35°21' W 121°48'816.9
2018-Nov-09 11:02N 35°28' W 121°52'6115.0
2018-Nov-09 11:00N 35°24' W 121°48'1430.6 060 / 301017.110.8 17.0 7.016.0
2018-Nov-09 10:32N 35°36' W 121°57'8716.7
2018-Nov-09 05:21N 36°56' W 122°37'617.0
2018-Nov-09 04:58N 37°02' W 122°40'716.4
2018-Nov-09 04:32N 37°09' W 122°43'815.4
2018-Nov-09 04:02N 37°17' W 122°43'511.1
2018-Nov-09 03:32N 37°22' W 122°44'510.6
2018-Nov-09 03:02N 37°28' W 122°44'10197.1
2018-Nov-09 03:00N 37°18' W 122°42'1532.8 330 / 131022.610.8 12.0 7.912.0
2018-Nov-09 02:32N 37°33' W 122°44'510.6
2018-Nov-09 02:02N 37°38' W 122°44'611.3
2018-Nov-09 01:32N 37°44' W 122°42'612.5
2018-Nov-09 01:02N 37°47' W 122°35'815.2
2018-Nov-09 00:32N 37°49' W 122°26'2 3.1
2018-Nov-09 00:02N 37°48' W 122°24'0 0.0
2018-Nov-08 23:32N 37°48' W 122°24'0 0.0
2018-Nov-08 23:01N 37°48' W 122°24'0 0.0
2018-Nov-08 22:31N 37°48' W 122°24'0 0.0
2018-Nov-08 22:01N 37°48' W 122°24'0 0.0
2018-Nov-08 21:31N 37°48' W 122°24'0 0.0
2018-Nov-08 21:00N 37°48' W 122°24'0 0.0
2018-Nov-08 20:30N 37°48' W 122°24'0 0.0
2018-Nov-08 20:00N 37°48' W 122°24'0 0.0
2018-Nov-08 19:30N 37°48' W 122°24'0 0.0
2018-Nov-08 19:00N 37°48' W 122°24'0 0.0
2018-Nov-08 18:32N 37°48' W 122°24'0 0.0
2018-Nov-08 18:02N 37°48' W 122°24'0 0.0
2018-Nov-08 17:32N 37°48' W 122°24'0 0.0
2018-Nov-08 16:59N 37°48' W 122°24'0 0.0
2018-Nov-08 16:32N 37°48' W 122°24'0 0.0
2018-Nov-08 16:01N 37°48' W 122°24'0 0.0
2018-Nov-08 15:31N 37°48' W 122°24'0 0.0
2018-Nov-08 15:01N 37°48' W 122°24'0 0.0
2018-Nov-08 14:32N 37°48' W 122°24'1 2.3
2018-Nov-08 14:02N 37°49' W 122°25'511.0
2018-Nov-08 13:32N 37°48' W 122°32'714.0
2018-Nov-08 13:02N 37°45' W 122°40'510.6
2018-Nov-08 12:32N 37°40' W 122°40'611.4
2018-Nov-08 12:02N 37°34' W 122°40'510.8
2018-Nov-08 11:32N 37°28' W 122°40'510.9
2018-Nov-08 11:02N 37°23' W 122°40'362.1
2018-Nov-08 11:00N 37°24' W 122°36'716.0 330 / 171016.310.8 12.510.613.0
2018-Nov-08 10:32N 37°17' W 122°39'815.6
2018-Nov-08 10:03N 37°10' W 122°37'815.6
2018-Nov-08 09:33N 37°02' W 122°34'815.0
2018-Nov-08 09:03N 36°55' W 122°31'714.9
2018-Nov-08 08:32N 36°48' W 122°28'816.6
2018-Nov-08 08:02N 36°40' W 122°24'918.5
2018-Nov-08 07:32N 36°31' W 122°21'918.4
2018-Nov-08 07:03N 36°23' W 122°17'477.3
2018-Nov-08 07:00N 36°24' W 122°12'1021.6 320 / 301015.110.8 13.0 9.114.0
2018-Nov-08 06:32N 36°14' W 122°13'917.8
2018-Nov-08 06:02N 36°06' W 122°09'917.7
2018-Nov-08 05:32N 35°58' W 122°06'917.7
2018-Nov-08 05:02N 35°49' W 122°02'816.2
2018-Nov-08 04:32N 35°42' W 121°58'714.6
2018-Nov-08 04:03N 35°35' W 121°54'815.1
2018-Nov-08 03:32N 35°28' W 121°50'815.2
2018-Nov-08 03:02N 35°21' W 121°46'715.2
2018-Nov-08 02:32N 35°15' W 121°42'714.9
2018-Nov-08 02:02N 35°08' W 121°39'714.5
2018-Nov-08 01:32N 35°01' W 121°35'714.8
2018-Nov-08 01:02N 34°54' W 121°31'514.6
2018-Nov-08 00:43N 34°50' W 121°29'314.5
2018-Nov-08 00:32N 34°48' W 121°28'115.0
2018-Nov-08 00:29N 34°47' W 121°27'614.8
2018-Nov-08 00:02N 34°41' W 121°23'714.8
2018-Nov-07 23:32N 34°35' W 121°18'714.8
2018-Nov-07 23:02N 34°29' W 121°13'121.0
2018-Nov-07 23:00N 34°30' W 121°12'816.8 310 / 221014.210.8 17.015.316.0
2018-Nov-07 22:33N 34°23' W 121°08'714.7
2018-Nov-07 22:02N 34°17' W 121°02'815.1
2018-Nov-07 21:32N 34°11' W 120°57'815.4
2018-Nov-07 21:02N 34°05' W 120°51'815.6
2018-Nov-07 20:33N 33°59' W 120°46'816.2
2018-Nov-07 20:02N 33°52' W 120°40'815.9
2018-Nov-07 19:32N 33°46' W 120°35'816.0
2018-Nov-07 19:02N 33°39' W 120°30'816.1
2018-Nov-07 18:32N 33°32' W 120°25'816.4
2018-Nov-07 18:02N 33°24' W 120°20'816.7
2018-Nov-07 17:32N 33°17' W 120°16'816.6
2018-Nov-07 17:02N 33°10' W 120°11'816.6
2018-Nov-07 16:33N 33°02' W 120°07'816.3
2018-Nov-07 16:02N 32°59' W 119°58'916.5
2018-Nov-07 15:31N 32°53' W 119°51'816.3
2018-Nov-07 15:02N 32°48' W 119°44'916.5
2018-Nov-07 14:31N 32°42' W 119°36'816.5
2018-Nov-07 14:02N 32°37' W 119°29'916.6
2018-Nov-07 13:28N 32°30' W 119°21'716.6
2018-Nov-07 13:01N 32°26' W 119°14'816.5
2018-Nov-07 12:33N 32°21' W 119°07'816.5
2018-Nov-07 12:03N 32°15' W 118°59'816.9
2018-Nov-07 11:32N 32°10' W 118°51'816.9
2018-Nov-07 11:02N 32°05' W 118°43'816.8
2018-Nov-07 10:32N 32°00' W 118°35'816.7
2018-Nov-07 10:02N 31°55' W 118°27'816.3
2018-Nov-07 09:32N 31°53' W 118°18'816.7
2018-Nov-07 09:02N 31°53' W 118°08'816.6
2018-Nov-07 08:32N 31°52' W 117°58'916.8
2018-Nov-07 08:01N 31°52' W 117°48'2612.8
2018-Nov-07 06:00N 31°48' W 117°18'12 1.4 220 / 41014.3 19.013.819.0
2018-Nov-06 21:26N 31°38' W 117°11'1419.0
2018-Nov-06 20:43N 31°33' W 117°25'518.8
2018-Nov-06 20:28N 31°31' W 117°30'818.9
2018-Nov-06 20:04N 31°28' W 117°39'118.5
2018-Nov-06 20:00N 31°27' W 117°40'918.9
2018-Nov-06 19:31N 31°24' W 117°50'919.3
2018-Nov-06 19:03N 31°20' W 117°59'118.6
2018-Nov-06 19:00N 31°20' W 118°00'919.1
2018-Nov-06 18:30N 31°16' W 118°11'919.0
2018-Nov-06 18:03N 31°13' W 118°20'119.5
2018-Nov-06 18:01N 31°12' W 118°21'1019.1
2018-Nov-06 17:30N 31°09' W 118°31'919.2
2018-Nov-06 17:04N 31°06' W 118°41'120.1
2018-Nov-06 17:01N 31°05' W 118°42'1019.4
2018-Nov-06 16:30N 31°03' W 118°53'919.8
2018-Nov-06 16:03N 31°00' W 119°03'119.8
2018-Nov-06 16:00N 30°60' W 119°04'1119.5
2018-Nov-06 15:27N 30°57' W 119°16'820.1
2018-Nov-06 15:03N 30°54' W 119°25'120.0
2018-Nov-06 15:00N 30°54' W 119°26'1020.2
2018-Nov-06 14:30N 30°51' W 119°37'1019.9
2018-Nov-06 14:01N 30°49' W 119°48'022.7
2018-Nov-06 14:00N 30°48' W 119°48'1120.0
2018-Nov-06 13:26N 30°45' W 120°01'819.8
2018-Nov-06 13:03N 30°43' W 120°09'119.5
2018-Nov-06 13:00N 30°43' W 120°10'1019.7
2018-Nov-06 12:30N 30°40' W 120°21'1719.6
2018-Nov-06 11:39N 30°35' W 120°40'719.4
2018-Nov-06 11:18N 30°33' W 120°48'719.3
2018-Nov-06 10:55N 30°31' W 120°56'1119.4
2018-Nov-06 10:20N 30°28' W 121°09'519.6
2018-Nov-06 10:03N 30°27' W 121°15'119.6
2018-Nov-06 10:00N 30°26' W 121°16'1419.5
2018-Nov-06 09:16N 30°23' W 121°32'519.4
2018-Nov-06 09:01N 30°22' W 121°37'219.4
2018-Nov-06 08:56N 30°21' W 121°39'919.3
2018-Nov-06 08:28N 30°18' W 121°49'819.4
2018-Nov-06 08:03N 30°16' W 121°58'119.5
2018-Nov-06 08:00N 30°15' W 121°59'1019.4
2018-Nov-06 07:30N 30°12' W 122°10'919.4
2018-Nov-06 07:03N 30°10' W 122°19'119.4
2018-Nov-06 07:00N 30°10' W 122°20'1119.1
2018-Nov-06 06:25N 30°06' W 122°33'1520.1
2018-Nov-06 05:40N 30°02' W 122°50'320.7
2018-Nov-06 05:31N 30°02' W 122°53'1420.7
2018-Nov-06 04:51N 29°58' W 123°09'1120.5
2018-Nov-06 04:19N 29°55' W 123°20'620.5
2018-Nov-06 04:03N 29°53' W 123°26'120.2
2018-Nov-06 03:59N 29°53' W 123°28'2020.4
2018-Nov-06 03:00N 29°47' W 123°50'1020.6
2018-Nov-06 02:30N 29°44' W 124°01'920.3
2018-Nov-06 02:04N 29°41' W 124°11'120.7
2018-Nov-06 02:00N 29°41' W 124°13'1020.2
2018-Nov-06 01:30N 29°38' W 124°24'920.1
2018-Nov-06 01:03N 29°36' W 124°34'3320.1
2018-Nov-05 23:24N 29°26' W 125°10'5119.9
2018-Nov-05 20:50N 29°12' W 126°07'819.5
2018-Nov-05 20:25N 29°09' W 126°15'1119.8
2018-Nov-05 19:52N 29°06' W 126°27'1319.5
2018-Nov-05 19:13N 29°03' W 126°41'519.2
2018-Nov-05 18:57N 29°01' W 126°47'3219.4
2018-Nov-05 17:18N 28°52' W 127°22'719.5
2018-Nov-05 16:58N 28°50' W 127°29'3219.6
2018-Nov-05 15:20N 28°41' W 128°04'2820.1
2018-Nov-05 13:55N 28°33' W 128°35'2719.9
2018-Nov-05 12:33N 28°26' W 129°05'120.7
2018-Nov-05 12:30N 28°25' W 129°06'1019.9
2018-Nov-05 12:00N 28°23' W 129°17'1119.5
2018-Nov-05 11:27N 28°19' W 129°29'819.7
2018-Nov-05 11:03N 28°17' W 129°37'119.7
2018-Nov-05 10:59N 28°17' W 129°39'1119.8
2018-Nov-05 10:25N 28°14' W 129°51'719.8
2018-Nov-05 10:03N 28°12' W 129°59'119.1
2018-Nov-05 10:00N 28°11' W 129°60'1319.8
2018-Nov-05 09:20N 28°08' W 130°14'719.8
2018-Nov-05 08:59N 28°06' W 130°22'1019.7
2018-Nov-05 08:29N 28°03' W 130°32'919.6
2018-Nov-05 08:03N 28°01' W 130°42'119.7
2018-Nov-05 08:00N 28°00' W 130°43'1019.8
2018-Nov-05 07:29N 27°57' W 130°54'  

Dump ship's entire track history